sensor_id;sensor_type;location;lat;lon;timestamp;temperature;humidity
17529;DHT22;8882;53.192;8.184;2024-02-23T05:20:02;4.60;99.90
17529;DHT22;8882;53.192;8.184;2024-02-23T05:22:33;4.60;99.90
17529;DHT22;8882;53.192;8.184;2024-02-23T05:24:58;4.60;99.90
17529;DHT22;8882;53.192;8.184;2024-02-23T05:27:24;4.60;99.90
17529;DHT22;8882;53.192;8.184;2024-02-23T05:29:49;4.60;99.90
17529;DHT22;8882;53.192;8.184;2024-02-23T05:32:15;4.60;99.90
17529;DHT22;8882;53.192;8.184;2024-02-23T05:34:41;4.60;99.90
17529;DHT22;8882;53.192;8.184;2024-02-23T05:37:07;4.60;99.90
17529;DHT22;8882;53.192;8.184;2024-02-23T05:39:33;4.60;99.90
17529;DHT22;8882;53.192;8.184;2024-02-23T05:41:58;4.60;99.90
17529;DHT22;8882;53.192;8.184;2024-02-23T05:44:25;4.60;99.90
17529;DHT22;8882;53.192;8.184;2024-02-23T05:46:50;4.50;99.90
17529;DHT22;8882;53.192;8.184;2024-02-23T05:49:16;4.40;99.90
17529;DHT22;8882;53.192;8.184;2024-02-23T05:51:41;4.50;99.90
17529;DHT22;8882;53.192;8.184;2024-02-23T05:54:08;4.50;99.90
17529;DHT22;8882;53.192;8.184;2024-02-23T05:56:33;4.50;99.90
17529;DHT22;8882;53.192;8.184;2024-02-23T05:58:59;4.50;99.90
17529;DHT22;8882;53.192;8.184;2024-02-23T06:01:24;4.50;99.90
17529;DHT22;8882;53.192;8.184;2024-02-23T06:03:50;4.50;99.90
17529;DHT22;8882;53.192;8.184;2024-02-23T06:06:15;4.50;99.90
17529;DHT22;8882;53.192;8.184;2024-02-23T06:08:41;4.50;99.90
17529;DHT22;8882;53.192;8.184;2024-02-23T06:11:09;4.50;99.90
17529;DHT22;8882;53.192;8.184;2024-02-23T06:13:35;4.50;99.90
17529;DHT22;8882;53.192;8.184;2024-02-23T06:16:00;4.50;99.90
17529;DHT22;8882;53.192;8.184;2024-02-23T06:18:26;4.40;99.90
17529;DHT22;8882;53.192;8.184;2024-02-23T06:20:51;4.50;99.90
17529;DHT22;8882;53.192;8.184;2024-02-23T06:23:17;4.50;99.90
17529;DHT22;8882;53.192;8.184;2024-02-23T06:25:43;4.50;99.90
17529;DHT22;8882;53.192;8.184;2024-02-23T06:28:11;4.50;99.90
17529;DHT22;8882;53.192;8.184;2024-02-23T06:30:37;4.40;99.90
17529;DHT22;8882;53.192;8.184;2024-02-23T06:33:02;4.50;99.90
17529;DHT22;8882;53.192;8.184;2024-02-23T06:35:29;4.40;99.90
17529;DHT22;8882;53.192;8.184;2024-02-23T06:37:55;4.40;99.90
17529;DHT22;8882;53.192;8.184;2024-02-23T06:40:20;4.50;99.90
17529;DHT22;8882;53.192;8.184;2024-02-23T06:42:46;4.50;99.90
17529;DHT22;8882;53.192;8.184;2024-02-23T06:45:11;4.50;99.90
17529;DHT22;8882;53.192;8.184;2024-02-23T06:47:37;4.50;99.90
17529;DHT22;8882;53.192;8.184;2024-02-23T06:50:05;4.60;99.90
17529;DHT22;8882;53.192;8.184;2024-02-23T06:52:31;4.60;99.90
17529;DHT22;8882;53.192;8.184;2024-02-23T06:54:58;4.70;99.90
17529;DHT22;8882;53.192;8.184;2024-02-23T06:57:24;4.70;99.90
17529;DHT22;8882;53.192;8.184;2024-02-23T06:59:51;4.80;99.90
17529;DHT22;8882;53.192;8.184;2024-02-23T07:02:16;4.90;99.90
17529;DHT22;8882;53.192;8.184;2024-02-23T07:04:42;5.00;99.90
17529;DHT22;8882;53.192;8.184;2024-02-23T07:07:08;5.00;99.90
17529;DHT22;8882;53.192;8.184;2024-02-23T07:09:34;5.10;99.90
17529;DHT22;8882;53.192;8.184;2024-02-23T07:12:00;5.10;99.90
17529;DHT22;8882;53.192;8.184;2024-02-23T07:14:25;5.10;99.90
17529;DHT22;8882;53.192;8.184;2024-02-23T07:16:51;5.20;99.90
17529;DHT22;8882;53.192;8.184;2024-02-23T07:19:18;5.20;99.90
17529;DHT22;8882;53.192;8.184;2024-02-23T07:21:45;5.20;99.90
17529;DHT22;8882;53.192;8.184;2024-02-23T07:24:10;5.20;99.90
17529;DHT22;8882;53.192;8.184;2024-02-23T07:26:36;5.30;99.90
17529;DHT22;8882;53.192;8.184;2024-02-23T07:29:02;5.30;99.90
17529;DHT22;8882;53.192;8.184;2024-02-23T07:31:27;5.30;99.90
17529;DHT22;8882;53.192;8.184;2024-02-23T07:33:53;5.30;99.90
17529;DHT22;8882;53.192;8.184;2024-02-23T07:36:18;5.30;99.90
17529;DHT22;8882;53.192;8.184;2024-02-23T07:38:44;5.30;99.90
17529;DHT22;8882;53.192;8.184;2024-02-23T07:41:10;5.30;99.90
17529;DHT22;8882;53.192;8.184;2024-02-23T07:43:36;5.30;99.90
17529;DHT22;8882;53.192;8.184;2024-02-23T07:46:02;5.40;99.90
17529;DHT22;8882;53.192;8.184;2024-02-23T07:48:27;5.40;99.90
17529;DHT22;8882;53.192;8.184;2024-02-23T07:50:53;5.50;99.90
17529;DHT22;8882;53.192;8.184;2024-02-23T07:53:19;5.50;99.90
17529;DHT22;8882;53.192;8.184;2024-02-23T07:55:44;5.60;99.90
17529;DHT22;8882;53.192;8.184;2024-02-23T07:58:10;5.70;99.90
17529;DHT22;8882;53.192;8.184;2024-02-23T08:00:35;5.70;99.90
17529;DHT22;8882;53.192;8.184;2024-02-23T08:03:03;5.70;99.90
17529;DHT22;8882;53.192;8.184;2024-02-23T08:05:29;5.80;99.90
17529;DHT22;8882;53.192;8.184;2024-02-23T08:07:55;5.80;99.90
17529;DHT22;8882;53.192;8.184;2024-02-23T08:10:21;5.70;99.90
17529;DHT22;8882;53.192;8.184;2024-02-23T08:12:47;5.80;99.90
17529;DHT22;8882;53.192;8.184;2024-02-23T08:15:12;5.80;99.90
17529;DHT22;8882;53.192;8.184;2024-02-23T08:17:38;5.80;99.90
17529;DHT22;8882;53.192;8.184;2024-02-23T08:20:04;5.90;99.90
17529;DHT22;8882;53.192;8.184;2024-02-23T08:22:30;5.90;99.90
17529;DHT22;8882;53.192;8.184;2024-02-23T08:24:56;6.00;99.90
17529;DHT22;8882;53.192;8.184;2024-02-23T08:27:21;6.00;99.90
17529;DHT22;8882;53.192;8.184;2024-02-23T08:29:47;6.10;99.90
17529;DHT22;8882;53.192;8.184;2024-02-23T08:32:12;6.10;99.90
17529;DHT22;8882;53.192;8.184;2024-02-23T08:34:39;6.20;99.90
17529;DHT22;8882;53.192;8.184;2024-02-23T08:37:04;6.30;99.90
17529;DHT22;8882;53.192;8.184;2024-02-23T08:39:30;6.30;99.90
17529;DHT22;8882;53.192;8.184;2024-02-23T08:41:55;6.40;99.90
17529;DHT22;8882;53.192;8.184;2024-02-23T08:44:21;6.40;99.90
17529;DHT22;8882;53.192;8.184;2024-02-23T08:46:47;6.40;99.90
17529;DHT22;8882;53.192;8.184;2024-02-23T08:49:13;6.40;99.90
17529;DHT22;8882;53.192;8.184;2024-02-23T08:51:39;6.40;99.90
17529;DHT22;8882;53.192;8.184;2024-02-23T08:54:05;6.40;99.90
17529;DHT22;8882;53.192;8.184;2024-02-23T08:56:34;6.50;99.90
17529;DHT22;8882;53.192;8.184;2024-02-23T08:59:01;6.60;99.90
17529;DHT22;8882;53.192;8.184;2024-02-23T09:01:27;6.70;99.90
17529;DHT22;8882;53.192;8.184;2024-02-23T09:03:53;6.80;99.90
17529;DHT22;8882;53.192;8.184;2024-02-23T09:08:45;6.80;99.90
17529;DHT22;8882;53.192;8.184;2024-02-23T09:11:10;6.70;99.90
17529;DHT22;8882;53.192;8.184;2024-02-23T09:13:38;6.80;99.90
17529;DHT22;8882;53.192;8.184;2024-02-23T09:16:04;6.70;99.90
17529;DHT22;8882;53.192;8.184;2024-02-23T09:18:29;6.70;99.90
17529;DHT22;8882;53.192;8.184;2024-02-23T09:20:55;6.60;99.90
17529;DHT22;8882;53.192;8.184;2024-02-23T09:23:20;6.70;99.90
17529;DHT22;8882;53.192;8.184;2024-02-23T09:25:46;6.70;99.90
17529;DHT22;8882;53.192;8.184;2024-02-23T09:28:11;6.70;99.90
17529;DHT22;8882;53.192;8.184;2024-02-23T09:30:37;6.70;99.90
17529;DHT22;8882;53.192;8.184;2024-02-23T09:33:03;6.70;99.90
17529;DHT22;8882;53.192;8.184;2024-02-23T09:35:29;6.70;99.90
17529;DHT22;8882;53.192;8.184;2024-02-23T09:37:54;6.70;99.90
17529;DHT22;8882;53.192;8.184;2024-02-23T09:40:20;6.80;99.90
17529;DHT22;8882;53.192;8.184;2024-02-23T09:42:55;6.80;99.90
17529;DHT22;8882;53.192;8.184;2024-02-23T09:45:22;6.80;99.90
17529;DHT22;8882;53.192;8.184;2024-02-23T09:47:48;6.80;99.90
17529;DHT22;8882;53.192;8.184;2024-02-23T09:50:15;6.80;99.90
17529;DHT22;8882;53.192;8.184;2024-02-23T09:52:43;6.80;99.90
17529;DHT22;8882;53.192;8.184;2024-02-23T09:55:08;6.80;99.90
17529;DHT22;8882;53.192;8.184;2024-02-23T09:57:35;6.80;99.90
17529;DHT22;8882;53.192;8.184;2024-02-23T10:00:01;6.80;99.90
17529;DHT22;8882;53.192;8.184;2024-02-23T10:02:31;6.90;99.90
17529;DHT22;8882;53.192;8.184;2024-02-23T10:04:58;6.90;99.90
17529;DHT22;8882;53.192;8.184;2024-02-23T10:07:25;6.90;99.90
17529;DHT22;8882;53.192;8.184;2024-02-23T10:09:51;6.90;99.90
17529;DHT22;8882;53.192;8.184;2024-02-23T10:12:16;6.90;99.90
17529;DHT22;8882;53.192;8.184;2024-02-23T10:14:43;6.90;99.90
17529;DHT22;8882;53.192;8.184;2024-02-23T10:17:08;6.90;99.90
17529;DHT22;8882;53.192;8.184;2024-02-23T10:19:34;6.90;99.90
17529;DHT22;8882;53.192;8.184;2024-02-23T10:22:00;6.90;99.90
17529;DHT22;8882;53.192;8.184;2024-02-23T10:24:25;7.00;99.90
17529;DHT22;8882;53.192;8.184;2024-02-23T10:26:51;7.00;99.90
17529;DHT22;8882;53.192;8.184;2024-02-23T10:29:17;7.00;99.90
17529;DHT22;8882;53.192;8.184;2024-02-23T10:31:44;7.00;99.90
17529;DHT22;8882;53.192;8.184;2024-02-23T10:34:13;6.90;99.90
17529;DHT22;8882;53.192;8.184;2024-02-23T10:36:41;6.90;99.90
17529;DHT22;8882;53.192;8.184;2024-02-23T10:39:08;7.00;99.90
17529;DHT22;8882;53.192;8.184;2024-02-23T10:41:35;7.00;99.90
17529;DHT22;8882;53.192;8.184;2024-02-23T10:44:03;7.00;99.90
17529;DHT22;8882;53.192;8.184;2024-02-23T10:46:31;7.00;99.90
17529;DHT22;8882;53.192;8.184;2024-02-23T10:48:58;7.10;99.90
17529;DHT22;8882;53.192;8.184;2024-02-23T10:51:24;7.10;99.90
17529;DHT22;8882;53.192;8.184;2024-02-23T10:53:50;7.10;99.90
17529;DHT22;8882;53.192;8.184;2024-02-23T10:56:17;7.10;99.90
17529;DHT22;8882;53.192;8.184;2024-02-23T10:58:43;7.10;99.90
17529;DHT22;8882;53.192;8.184;2024-02-23T11:01:09;7.10;99.90
17529;DHT22;8882;53.192;8.184;2024-02-23T11:03:36;7.20;99.90
17529;DHT22;8882;53.192;8.184;2024-02-23T11:06:05;7.20;99.90
17529;DHT22;8882;53.192;8.184;2024-02-23T11:08:34;7.20;99.90
17529;DHT22;8882;53.192;8.184;2024-02-23T11:11:08;7.20;99.90
17529;DHT22;8882;53.192;8.184;2024-02-23T11:13:35;7.20;99.90
17529;DHT22;8882;53.192;8.184;2024-02-23T11:16:02;7.20;99.90
17529;DHT22;8882;53.192;8.184;2024-02-23T11:18:29;7.20;99.90
17529;DHT22;8882;53.192;8.184;2024-02-23T11:21:02;7.30;99.90
17529;DHT22;8882;53.192;8.184;2024-02-23T11:23:48;7.30;99.90
17529;DHT22;8882;53.192;8.184;2024-02-23T11:26:15;7.30;99.90
17529;DHT22;8882;53.192;8.184;2024-02-23T11:28:47;7.30;99.90
17529;DHT22;8882;53.192;8.184;2024-02-23T11:31:14;7.30;99.90
17529;DHT22;8882;53.192;8.184;2024-02-23T11:33:40;7.30;99.90
17529;DHT22;8882;53.192;8.184;2024-02-23T11:36:07;7.30;99.90
17529;DHT22;8882;53.192;8.184;2024-02-23T11:38:33;7.30;99.90
17529;DHT22;8882;53.192;8.184;2024-02-23T11:41:00;7.30;99.90
17529;DHT22;8882;53.192;8.184;2024-02-23T11:43:26;7.30;99.90
17529;DHT22;8882;53.192;8.184;2024-02-23T11:45:53;7.30;99.90
17529;DHT22;8882;53.192;8.184;2024-02-23T11:48:18;7.30;99.90
17529;DHT22;8882;53.192;8.184;2024-02-23T11:50:44;7.30;99.90
17529;DHT22;8882;53.192;8.184;2024-02-23T11:53:10;7.30;99.90
17529;DHT22;8882;53.192;8.184;2024-02-23T11:55:36;7.20;99.90
17529;DHT22;8882;53.192;8.184;2024-02-23T11:58:02;7.20;99.90
17529;DHT22;8882;53.192;8.184;2024-02-23T12:00:28;7.20;99.90
17529;DHT22;8882;53.192;8.184;2024-02-23T12:02:55;7.20;99.90
17529;DHT22;8882;53.192;8.184;2024-02-23T12:05:21;7.20;99.90
17529;DHT22;8882;53.192;8.184;2024-02-23T12:07:47;7.20;99.90
17529;DHT22;8882;53.192;8.184;2024-02-23T12:10:12;7.20;99.90
17529;DHT22;8882;53.192;8.184;2024-02-23T12:12:39;7.20;99.90
17529;DHT22;8882;53.192;8.184;2024-02-23T12:15:06;7.20;99.90
17529;DHT22;8882;53.192;8.184;2024-02-23T12:17:31;7.20;99.90
17529;DHT22;8882;53.192;8.184;2024-02-23T12:20:01;7.20;99.90
17529;DHT22;8882;53.192;8.184;2024-02-23T12:22:26;7.30;99.90
17529;DHT22;8882;53.192;8.184;2024-02-23T12:24:52;7.30;99.90
17529;DHT22;8882;53.192;8.184;2024-02-23T12:27:18;7.40;99.90
17529;DHT22;8882;53.192;8.184;2024-02-23T12:29:52;7.40;99.90
17529;DHT22;8882;53.192;8.184;2024-02-23T12:32:20;7.50;99.90
17529;DHT22;8882;53.192;8.184;2024-02-23T12:34:47;7.50;99.90
17529;DHT22;8882;53.192;8.184;2024-02-23T12:37:16;7.60;99.90
17529;DHT22;8882;53.192;8.184;2024-02-23T12:39:42;7.70;99.90
17529;DHT22;8882;53.192;8.184;2024-02-23T12:42:08;7.90;99.90
17529;DHT22;8882;53.192;8.184;2024-02-23T12:44:34;7.90;99.90
17529;DHT22;8882;53.192;8.184;2024-02-23T12:46:59;8.00;99.90
17529;DHT22;8882;53.192;8.184;2024-02-23T12:49:25;8.00;99.90
17529;DHT22;8882;53.192;8.184;2024-02-23T12:51:50;8.10;99.90
17529;DHT22;8882;53.192;8.184;2024-02-23T12:54:16;8.10;99.90
17529;DHT22;8882;53.192;8.184;2024-02-23T12:56:41;8.20;99.90
17529;DHT22;8882;53.192;8.184;2024-02-23T12:59:07;8.30;99.90
17529;DHT22;8882;53.192;8.184;2024-02-23T13:01:35;8.40;99.90
17529;DHT22;8882;53.192;8.184;2024-02-23T13:04:05;8.40;99.90
17529;DHT22;8882;53.192;8.184;2024-02-23T13:06:39;8.30;99.90
17529;DHT22;8882;53.192;8.184;2024-02-23T13:09:05;8.10;99.90
17529;DHT22;8882;53.192;8.184;2024-02-23T13:11:34;8.10;99.90
17529;DHT22;8882;53.192;8.184;2024-02-23T13:13:59;8.00;99.90
17529;DHT22;8882;53.192;8.184;2024-02-23T13:16:25;8.10;99.90
17529;DHT22;8882;53.192;8.184;2024-02-23T13:18:51;8.10;99.90
17529;DHT22;8882;53.192;8.184;2024-02-23T13:21:16;8.00;99.90
17529;DHT22;8882;53.192;8.184;2024-02-23T13:23:42;8.00;99.90
17529;DHT22;8882;53.192;8.184;2024-02-23T13:26:08;7.90;99.90
17529;DHT22;8882;53.192;8.184;2024-02-23T13:28:36;7.80;99.90
17529;DHT22;8882;53.192;8.184;2024-02-23T13:31:02;7.70;99.90
17529;DHT22;8882;53.192;8.184;2024-02-23T13:33:28;7.60;99.90
17529;DHT22;8882;53.192;8.184;2024-02-23T13:35:53;7.60;99.90
17529;DHT22;8882;53.192;8.184;2024-02-23T13:38:20;7.70;99.90
17529;DHT22;8882;53.192;8.184;2024-02-23T13:40:46;7.70;99.90
17529;DHT22;8882;53.192;8.184;2024-02-23T13:43:12;7.60;99.90
17529;DHT22;8882;53.192;8.184;2024-02-23T13:45:51;7.60;99.90
17529;DHT22;8882;53.192;8.184;2024-02-23T13:48:17;7.60;99.90
17529;DHT22;8882;53.192;8.184;2024-02-23T13:50:44;7.60;99.90
17529;DHT22;8882;53.192;8.184;2024-02-23T13:53:11;7.60;99.90
17529;DHT22;8882;53.192;8.184;2024-02-23T13:55:38;7.60;99.90
17529;DHT22;8882;53.192;8.184;2024-02-23T13:58:04;7.50;99.90
17529;DHT22;8882;53.192;8.184;2024-02-23T14:00:29;7.50;99.90
17529;DHT22;8882;53.192;8.184;2024-02-23T14:02:55;7.50;99.90
17529;DHT22;8882;53.192;8.184;2024-02-23T14:05:20;7.40;99.90
17529;DHT22;8882;53.192;8.184;2024-02-23T14:07:47;7.40;99.90
17529;DHT22;8882;53.192;8.184;2024-02-23T14:10:13;7.40;99.90
17529;DHT22;8882;53.192;8.184;2024-02-23T14:12:40;7.40;99.90
17529;DHT22;8882;53.192;8.184;2024-02-23T14:15:06;7.40;99.90
17529;DHT22;8882;53.192;8.184;2024-02-23T14:17:32;7.40;99.90
17529;DHT22;8882;53.192;8.184;2024-02-23T14:19:58;7.30;99.90
17529;DHT22;8882;53.192;8.184;2024-02-23T14:22:23;7.30;99.90
17529;DHT22;8882;53.192;8.184;2024-02-23T14:24:49;7.30;99.90
17529;DHT22;8882;53.192;8.184;2024-02-23T14:27:15;7.30;99.90
17529;DHT22;8882;53.192;8.184;2024-02-23T14:29:40;7.30;99.90
17529;DHT22;8882;53.192;8.184;2024-02-23T14:32:06;7.30;99.90
17529;DHT22;8882;53.192;8.184;2024-02-23T14:34:31;7.40;99.90
17529;DHT22;8882;53.192;8.184;2024-02-23T14:36:59;7.40;99.90
17529;DHT22;8882;53.192;8.184;2024-02-23T14:39:24;7.40;99.90
17529;DHT22;8882;53.192;8.184;2024-02-23T14:41:50;7.50;99.90
17529;DHT22;8882;53.192;8.184;2024-02-23T14:44:15;7.50;99.90
17529;DHT22;8882;53.192;8.184;2024-02-23T14:46:41;7.50;99.90
17529;DHT22;8882;53.192;8.184;2024-02-23T14:49:07;7.50;99.90
17529;DHT22;8882;53.192;8.184;2024-02-23T14:51:32;7.50;99.90
17529;DHT22;8882;53.192;8.184;2024-02-23T14:53:59;7.50;99.90
17529;DHT22;8882;53.192;8.184;2024-02-23T14:56:27;7.50;99.90
17529;DHT22;8882;53.192;8.184;2024-02-23T14:58:53;7.50;99.90
17529;DHT22;8882;53.192;8.184;2024-02-23T15:01:18;7.50;99.90
17529;DHT22;8882;53.192;8.184;2024-02-23T15:03:44;7.50;99.90
17529;DHT22;8882;53.192;8.184;2024-02-23T15:06:09;7.60;99.90
17529;DHT22;8882;53.192;8.184;2024-02-23T15:08:36;7.60;99.90
17529;DHT22;8882;53.192;8.184;2024-02-23T15:11:02;7.50;99.90
17529;DHT22;8882;53.192;8.184;2024-02-23T15:13:27;7.60;99.90
17529;DHT22;8882;53.192;8.184;2024-02-23T15:15:53;7.50;99.90
17529;DHT22;8882;53.192;8.184;2024-02-23T15:18:19;7.50;99.90
17529;DHT22;8882;53.192;8.184;2024-02-23T15:20:45;7.60;99.90
17529;DHT22;8882;53.192;8.184;2024-02-23T15:23:12;7.60;99.90
17529;DHT22;8882;53.192;8.184;2024-02-23T15:25:38;7.60;99.90
17529;DHT22;8882;53.192;8.184;2024-02-23T15:28:03;7.60;99.90
17529;DHT22;8882;53.192;8.184;2024-02-23T15:30:29;7.60;99.90
17529;DHT22;8882;53.192;8.184;2024-02-23T15:32:54;7.60;99.90
17529;DHT22;8882;53.192;8.184;2024-02-23T15:35:20;7.60;99.90
17529;DHT22;8882;53.192;8.184;2024-02-23T15:37:46;7.60;99.90
17529;DHT22;8882;53.192;8.184;2024-02-23T15:40:11;7.60;99.90
17529;DHT22;8882;53.192;8.184;2024-02-23T15:42:37;7.60;99.90
17529;DHT22;8882;53.192;8.184;2024-02-23T15:45:04;7.60;99.90
17529;DHT22;8882;53.192;8.184;2024-02-23T15:47:32;7.60;99.90
17529;DHT22;8882;53.192;8.184;2024-02-23T15:49:57;7.60;99.90
17529;DHT22;8882;53.192;8.184;2024-02-23T15:52:23;7.60;99.90
17529;DHT22;8882;53.192;8.184;2024-02-23T15:54:48;7.70;99.90
17529;DHT22;8882;53.192;8.184;2024-02-23T15:57:14;7.60;99.90
17529;DHT22;8882;53.192;8.184;2024-02-23T15:59:39;7.60;99.90
17529;DHT22;8882;53.192;8.184;2024-02-23T16:02:05;7.60;99.90
17529;DHT22;8882;53.192;8.184;2024-02-23T16:04:32;7.60;99.90
17529;DHT22;8882;53.192;8.184;2024-02-23T16:06:57;7.60;99.90
17529;DHT22;8882;53.192;8.184;2024-02-23T16:09:23;7.60;99.90
17529;DHT22;8882;53.192;8.184;2024-02-23T16:11:48;7.70;99.90
17529;DHT22;8882;53.192;8.184;2024-02-23T16:14:14;7.70;99.90
17529;DHT22;8882;53.192;8.184;2024-02-23T16:16:40;7.70;99.90
17529;DHT22;8882;53.192;8.184;2024-02-23T16:19:07;7.60;99.90
17529;DHT22;8882;53.192;8.184;2024-02-23T16:21:38;7.70;99.90
17529;DHT22;8882;53.192;8.184;2024-02-23T16:24:06;7.60;99.90
17529;DHT22;8882;53.192;8.184;2024-02-23T16:26:33;7.60;99.90
17529;DHT22;8882;53.192;8.184;2024-02-23T16:29:06;7.60;99.90
17529;DHT22;8882;53.192;8.184;2024-02-23T16:31:35;7.60;99.90
17529;DHT22;8882;53.192;8.184;2024-02-23T16:34:02;7.60;99.90
17529;DHT22;8882;53.192;8.184;2024-02-23T16:36:28;7.60;99.90
17529;DHT22;8882;53.192;8.184;2024-02-23T16:38:53;7.60;99.90
17529;DHT22;8882;53.192;8.184;2024-02-23T16:41:19;7.50;99.90
17529;DHT22;8882;53.192;8.184;2024-02-23T16:43:45;7.50;99.90
17529;DHT22;8882;53.192;8.184;2024-02-23T16:46:11;7.50;99.90
17529;DHT22;8882;53.192;8.184;2024-02-23T16:48:36;7.50;99.90
17529;DHT22;8882;53.192;8.184;2024-02-23T16:51:02;7.50;99.90
17529;DHT22;8882;53.192;8.184;2024-02-23T16:53:28;7.40;99.90
17529;DHT22;8882;53.192;8.184;2024-02-23T16:55:53;7.40;99.90
17529;DHT22;8882;53.192;8.184;2024-02-23T16:58:20;7.40;99.90
17529;DHT22;8882;53.192;8.184;2024-02-23T17:00:48;7.40;99.90
17529;DHT22;8882;53.192;8.184;2024-02-23T17:03:13;7.30;99.90
17529;DHT22;8882;53.192;8.184;2024-02-23T17:05:39;7.30;99.90
17529;DHT22;8882;53.192;8.184;2024-02-23T17:08:04;7.30;99.90
17529;DHT22;8882;53.192;8.184;2024-02-23T17:10:30;7.30;99.90
17529;DHT22;8882;53.192;8.184;2024-02-23T17:12:55;7.30;99.90
17529;DHT22;8882;53.192;8.184;2024-02-23T17:15:21;7.30;99.90
17529;DHT22;8882;53.192;8.184;2024-02-23T17:17:47;7.20;99.90
17529;DHT22;8882;53.192;8.184;2024-02-23T17:20:14;7.20;99.90
17529;DHT22;8882;53.192;8.184;2024-02-23T17:22:40;7.20;99.90
17529;DHT22;8882;53.192;8.184;2024-02-23T17:25:06;7.20;99.90
17529;DHT22;8882;53.192;8.184;2024-02-23T17:27:32;7.20;99.90
17529;DHT22;8882;53.192;8.184;2024-02-23T17:30:00;7.10;99.90
17529;DHT22;8882;53.192;8.184;2024-02-23T17:32:25;7.00;99.90
17529;DHT22;8882;53.192;8.184;2024-02-23T17:34:51;7.00;99.90
17529;DHT22;8882;53.192;8.184;2024-02-23T17:37:16;7.00;99.90
17529;DHT22;8882;53.192;8.184;2024-02-23T17:39:42;6.90;99.90
17529;DHT22;8882;53.192;8.184;2024-02-23T17:42:07;6.90;99.90
17529;DHT22;8882;53.192;8.184;2024-02-23T17:44:33;6.80;99.90
17529;DHT22;8882;53.192;8.184;2024-02-23T17:46:58;6.80;99.90
17529;DHT22;8882;53.192;8.184;2024-02-23T17:49:24;6.80;99.90
17529;DHT22;8882;53.192;8.184;2024-02-23T17:51:49;6.70;99.90
17529;DHT22;8882;53.192;8.184;2024-02-23T17:54:15;6.70;99.90
17529;DHT22;8882;53.192;8.184;2024-02-23T17:56:40;6.70;99.90
17529;DHT22;8882;53.192;8.184;2024-02-23T17:59:06;6.70;99.90
17529;DHT22;8882;53.192;8.184;2024-02-23T18:01:32;6.60;99.90
17529;DHT22;8882;53.192;8.184;2024-02-23T18:04:00;6.60;99.90
17529;DHT22;8882;53.192;8.184;2024-02-23T18:06:26;6.60;99.90
17529;DHT22;8882;53.192;8.184;2024-02-23T18:08:51;6.50;99.90
17529;DHT22;8882;53.192;8.184;2024-02-23T18:11:17;6.50;99.90
17529;DHT22;8882;53.192;8.184;2024-02-23T18:13:43;6.40;99.90
17529;DHT22;8882;53.192;8.184;2024-02-23T18:16:09;6.40;99.90
17529;DHT22;8882;53.192;8.184;2024-02-23T18:18:38;6.40;99.90
17529;DHT22;8882;53.192;8.184;2024-02-23T18:21:05;6.40;99.90
17529;DHT22;8882;53.192;8.184;2024-02-23T18:23:31;6.40;99.90
17529;DHT22;8882;53.192;8.184;2024-02-23T18:25:57;6.30;99.90
17529;DHT22;8882;53.192;8.184;2024-02-23T18:28:22;6.20;99.90
17529;DHT22;8882;53.192;8.184;2024-02-23T18:30:48;6.20;99.90
17529;DHT22;8882;53.192;8.184;2024-02-23T18:33:14;6.20;99.90
17529;DHT22;8882;53.192;8.184;2024-02-23T18:35:39;6.20;99.90
17529;DHT22;8882;53.192;8.184;2024-02-23T18:38:05;6.20;99.90
17529;DHT22;8882;53.192;8.184;2024-02-23T18:40:30;6.30;99.90
17529;DHT22;8882;53.192;8.184;2024-02-23T18:42:56;6.20;99.90
17529;DHT22;8882;53.192;8.184;2024-02-23T18:45:21;6.30;99.90
17529;DHT22;8882;53.192;8.184;2024-02-23T18:47:47;6.30;99.90
17529;DHT22;8882;53.192;8.184;2024-02-23T18:50:13;6.30;99.90
17529;DHT22;8882;53.192;8.184;2024-02-23T18:52:39;6.30;99.90
17529;DHT22;8882;53.192;8.184;2024-02-23T18:55:06;6.30;99.90
17529;DHT22;8882;53.192;8.184;2024-02-23T18:57:34;6.30;99.90
17529;DHT22;8882;53.192;8.184;2024-02-23T18:59:59;6.20;99.90
17529;DHT22;8882;53.192;8.184;2024-02-23T19:02:25;6.50;99.90
17529;DHT22;8882;53.192;8.184;2024-02-23T19:04:50;6.40;99.90
17529;DHT22;8882;53.192;8.184;2024-02-23T19:07:16;6.40;99.90
17529;DHT22;8882;53.192;8.184;2024-02-23T19:09:42;6.40;99.90
17529;DHT22;8882;53.192;8.184;2024-02-23T19:12:07;6.40;99.90
17529;DHT22;8882;53.192;8.184;2024-02-23T19:14:34;6.30;99.90
17529;DHT22;8882;53.192;8.184;2024-02-23T19:17:00;6.30;99.90
17529;DHT22;8882;53.192;8.184;2024-02-23T19:19:26;6.30;99.90
17529;DHT22;8882;53.192;8.184;2024-02-23T19:22:47;6.30;99.90
17529;DHT22;8882;53.192;8.184;2024-02-23T19:25:13;6.40;99.90
17529;DHT22;8882;53.192;8.184;2024-02-23T19:27:40;6.40;99.90
17529;DHT22;8882;53.192;8.184;2024-02-23T19:30:06;6.40;99.90
17529;DHT22;8882;53.192;8.184;2024-02-23T19:32:36;6.40;99.90
17529;DHT22;8882;53.192;8.184;2024-02-23T19:35:02;6.40;99.90
17529;DHT22;8882;53.192;8.184;2024-02-23T19:37:28;6.40;99.90
17529;DHT22;8882;53.192;8.184;2024-02-23T19:39:54;6.40;99.90
17529;DHT22;8882;53.192;8.184;2024-02-23T19:42:20;6.40;99.90
17529;DHT22;8882;53.192;8.184;2024-02-23T19:44:45;6.50;99.90
17529;DHT22;8882;53.192;8.184;2024-02-23T19:47:12;6.50;99.90
17529;DHT22;8882;53.192;8.184;2024-02-23T19:49:37;6.50;99.90
17529;DHT22;8882;53.192;8.184;2024-02-23T19:52:03;6.50;99.90
17529;DHT22;8882;53.192;8.184;2024-02-23T19:54:29;6.50;99.90
17529;DHT22;8882;53.192;8.184;2024-02-23T19:56:55;6.50;99.90
17529;DHT22;8882;53.192;8.184;2024-02-23T19:59:20;6.50;99.90
17529;DHT22;8882;53.192;8.184;2024-02-23T20:01:46;6.50;99.90
17529;DHT22;8882;53.192;8.184;2024-02-23T20:04:12;6.50;99.90
17529;DHT22;8882;53.192;8.184;2024-02-23T20:06:37;6.60;99.90
17529;DHT22;8882;53.192;8.184;2024-02-23T20:09:03;6.60;99.90
17529;DHT22;8882;53.192;8.184;2024-02-23T20:11:29;6.60;99.90
17529;DHT22;8882;53.192;8.184;2024-02-23T20:13:54;6.60;99.90
17529;DHT22;8882;53.192;8.184;2024-02-23T20:16:20;6.60;99.90
17529;DHT22;8882;53.192;8.184;2024-02-23T20:18:45;6.60;99.90
17529;DHT22;8882;53.192;8.184;2024-02-23T20:21:11;6.60;99.90
17529;DHT22;8882;53.192;8.184;2024-02-23T20:23:36;6.60;99.90
17529;DHT22;8882;53.192;8.184;2024-02-23T20:26:02;6.60;99.90
17529;DHT22;8882;53.192;8.184;2024-02-23T20:28:28;6.60;99.90
17529;DHT22;8882;53.192;8.184;2024-02-23T20:34:03;6.70;99.90
17529;DHT22;8882;53.192;8.184;2024-02-23T20:36:29;6.70;99.90
17529;DHT22;8882;53.192;8.184;2024-02-23T20:38:55;6.70;99.90
17529;DHT22;8882;53.192;8.184;2024-02-23T20:41:20;6.60;99.90
17529;DHT22;8882;53.192;8.184;2024-02-23T20:43:48;6.60;99.90
17529;DHT22;8882;53.192;8.184;2024-02-23T20:46:14;6.60;99.90
17529;DHT22;8882;53.192;8.184;2024-02-23T20:48:39;6.50;99.90
17529;DHT22;8882;53.192;8.184;2024-02-23T20:51:05;6.50;99.90
17529;DHT22;8882;53.192;8.184;2024-02-23T20:53:33;6.50;99.90
17529;DHT22;8882;53.192;8.184;2024-02-23T20:55:58;6.50;99.90
17529;DHT22;8882;53.192;8.184;2024-02-23T20:58:24;6.40;99.90
17529;DHT22;8882;53.192;8.184;2024-02-23T21:00:50;6.40;99.90
17529;DHT22;8882;53.192;8.184;2024-02-23T21:03:15;6.40;99.90
17529;DHT22;8882;53.192;8.184;2024-02-23T21:05:41;6.40;99.90
17529;DHT22;8882;53.192;8.184;2024-02-23T21:08:07;6.40;99.90
17529;DHT22;8882;53.192;8.184;2024-02-23T21:10:34;6.40;99.90
17529;DHT22;8882;53.192;8.184;2024-02-23T21:12:59;6.40;99.90
17529;DHT22;8882;53.192;8.184;2024-02-23T21:15:26;6.40;99.90
17529;DHT22;8882;53.192;8.184;2024-02-23T21:17:51;6.40;99.90
17529;DHT22;8882;53.192;8.184;2024-02-23T21:20:17;6.40;99.90